sensor_id;sensor_type;location;lat;lon;timestamp;P1;durP1;ratioP1;P2;durP2;ratioP2
2674;SDS011;1347;42.122;24.746;2024-02-26T00:01:11;55.80;;;40.80;;
2674;SDS011;1347;42.122;24.746;2024-02-26T00:03:38;49.17;;;40.40;;
2674;SDS011;1347;42.122;24.746;2024-02-26T00:06:07;49.53;;;38.60;;
2674;SDS011;1347;42.122;24.746;2024-02-26T00:08:34;55.80;;;40.63;;
2674;SDS011;1347;42.122;24.746;2024-02-26T00:11:00;55.70;;;41.03;;
2674;SDS011;1347;42.122;24.746;2024-02-26T00:13:27;50.67;;;39.23;;
2674;SDS011;1347;42.122;24.746;2024-02-26T00:15:54;50.10;;;38.07;;
2674;SDS011;1347;42.122;24.746;2024-02-26T00:18:22;50.63;;;38.60;;
2674;SDS011;1347;42.122;24.746;2024-02-26T00:20:49;47.07;;;37.67;;
2674;SDS011;1347;42.122;24.746;2024-02-26T00:23:16;53.63;;;38.07;;
2674;SDS011;1347;42.122;24.746;2024-02-26T00:25:43;54.73;;;39.50;;
2674;SDS011;1347;42.122;24.746;2024-02-26T00:28:10;44.90;;;36.70;;
2674;SDS011;1347;42.122;24.746;2024-02-26T00:30:38;49.13;;;37.87;;
2674;SDS011;1347;42.122;24.746;2024-02-26T00:33:05;52.60;;;36.30;;
2674;SDS011;1347;42.122;24.746;2024-02-26T00:35:33;43.57;;;36.43;;
2674;SDS011;1347;42.122;24.746;2024-02-26T00:38:00;46.07;;;37.10;;
2674;SDS011;1347;42.122;24.746;2024-02-26T00:40:27;44.30;;;36.60;;
2674;SDS011;1347;42.122;24.746;2024-02-26T00:42:54;45.53;;;37.37;;
2674;SDS011;1347;42.122;24.746;2024-02-26T00:45:21;43.87;;;36.00;;
2674;SDS011;1347;42.122;24.746;2024-02-26T00:47:47;45.50;;;34.37;;
2674;SDS011;1347;42.122;24.746;2024-02-26T00:50:15;46.77;;;36.90;;
2674;SDS011;1347;42.122;24.746;2024-02-26T00:52:43;48.30;;;38.60;;
2674;SDS011;1347;42.122;24.746;2024-02-26T00:55:10;46.67;;;39.67;;
2674;SDS011;1347;42.122;24.746;2024-02-26T00:57:37;56.03;;;37.83;;
2674;SDS011;1347;42.122;24.746;2024-02-26T01:00:06;48.17;;;37.60;;
2674;SDS011;1347;42.122;24.746;2024-02-26T01:02:33;42.63;;;36.13;;
2674;SDS011;1347;42.122;24.746;2024-02-26T01:05:00;43.73;;;35.83;;
2674;SDS011;1347;42.122;24.746;2024-02-26T01:07:28;44.70;;;34.33;;
2674;SDS011;1347;42.122;24.746;2024-02-26T01:09:59;44.43;;;33.90;;
2674;SDS011;1347;42.122;24.746;2024-02-26T01:12:26;52.10;;;35.20;;
2674;SDS011;1347;42.122;24.746;2024-02-26T01:14:53;47.37;;;35.73;;
2674;SDS011;1347;42.122;24.746;2024-02-26T01:17:20;48.77;;;35.47;;
2674;SDS011;1347;42.122;24.746;2024-02-26T01:19:47;40.93;;;32.40;;
2674;SDS011;1347;42.122;24.746;2024-02-26T01:22:14;44.23;;;31.67;;
2674;SDS011;1347;42.122;24.746;2024-02-26T01:24:40;37.20;;;29.93;;
2674;SDS011;1347;42.122;24.746;2024-02-26T01:27:09;40.60;;;33.47;;
2674;SDS011;1347;42.122;24.746;2024-02-26T01:29:35;46.50;;;32.30;;
2674;SDS011;1347;42.122;24.746;2024-02-26T01:32:03;46.13;;;33.50;;
2674;SDS011;1347;42.122;24.746;2024-02-26T01:34:30;46.60;;;31.30;;
2674;SDS011;1347;42.122;24.746;2024-02-26T01:36:57;34.40;;;27.77;;
2674;SDS011;1347;42.122;24.746;2024-02-26T01:39:24;33.20;;;27.73;;
2674;SDS011;1347;42.122;24.746;2024-02-26T01:41:52;39.57;;;29.43;;
2674;SDS011;1347;42.122;24.746;2024-02-26T01:44:21;36.23;;;29.13;;
2674;SDS011;1347;42.122;24.746;2024-02-26T01:46:48;38.10;;;30.27;;
2674;SDS011;1347;42.122;24.746;2024-02-26T01:49:15;40.13;;;30.00;;
2674;SDS011;1347;42.122;24.746;2024-02-26T01:51:42;39.33;;;29.37;;
2674;SDS011;1347;42.122;24.746;2024-02-26T01:54:10;33.83;;;28.20;;
2674;SDS011;1347;42.122;24.746;2024-02-26T01:56:37;38.67;;;28.13;;
2674;SDS011;1347;42.122;24.746;2024-02-26T01:59:06;31.77;;;25.53;;
2674;SDS011;1347;42.122;24.746;2024-02-26T02:01:36;38.53;;;28.30;;
2674;SDS011;1347;42.122;24.746;2024-02-26T02:04:05;32.80;;;25.80;;
2674;SDS011;1347;42.122;24.746;2024-02-26T02:06:32;32.93;;;27.30;;
2674;SDS011;1347;42.122;24.746;2024-02-26T02:08:59;32.50;;;26.63;;
2674;SDS011;1347;42.122;24.746;2024-02-26T02:11:31;38.00;;;26.30;;
2674;SDS011;1347;42.122;24.746;2024-02-26T02:13:59;32.27;;;24.60;;
2674;SDS011;1347;42.122;24.746;2024-02-26T02:16:25;31.40;;;26.27;;
2674;SDS011;1347;42.122;24.746;2024-02-26T02:18:54;32.43;;;25.83;;
2674;SDS011;1347;42.122;24.746;2024-02-26T02:21:22;29.93;;;24.43;;
2674;SDS011;1347;42.122;24.746;2024-02-26T02:23:49;29.23;;;24.50;;
2674;SDS011;1347;42.122;24.746;2024-02-26T02:26:15;31.23;;;24.70;;
2674;SDS011;1347;42.122;24.746;2024-02-26T02:28:43;31.67;;;25.70;;
2674;SDS011;1347;42.122;24.746;2024-02-26T02:31:11;34.30;;;24.80;;
2674;SDS011;1347;42.122;24.746;2024-02-26T02:33:39;32.03;;;24.33;;
2674;SDS011;1347;42.122;24.746;2024-02-26T02:36:06;31.10;;;25.97;;
2674;SDS011;1347;42.122;24.746;2024-02-26T02:38:36;31.33;;;25.03;;
2674;SDS011;1347;42.122;24.746;2024-02-26T02:41:03;31.70;;;25.70;;
2674;SDS011;1347;42.122;24.746;2024-02-26T02:43:31;29.00;;;23.37;;
2674;SDS011;1347;42.122;24.746;2024-02-26T02:45:58;30.37;;;25.30;;
2674;SDS011;1347;42.122;24.746;2024-02-26T02:48:24;32.50;;;24.90;;
2674;SDS011;1347;42.122;24.746;2024-02-26T02:50:51;35.60;;;24.13;;
2674;SDS011;1347;42.122;24.746;2024-02-26T02:53:18;35.87;;;24.87;;
2674;SDS011;1347;42.122;24.746;2024-02-26T02:55:46;34.27;;;25.53;;
2674;SDS011;1347;42.122;24.746;2024-02-26T02:58:13;28.17;;;23.90;;
2674;SDS011;1347;42.122;24.746;2024-02-26T03:00:40;30.30;;;24.60;;
2674;SDS011;1347;42.122;24.746;2024-02-26T03:03:07;32.33;;;23.20;;
2674;SDS011;1347;42.122;24.746;2024-02-26T03:05:34;36.37;;;24.50;;
2674;SDS011;1347;42.122;24.746;2024-02-26T03:08:00;28.73;;;24.30;;
2674;SDS011;1347;42.122;24.746;2024-02-26T03:10:27;29.70;;;23.43;;
2674;SDS011;1347;42.122;24.746;2024-02-26T03:12:56;31.10;;;22.87;;
2674;SDS011;1347;42.122;24.746;2024-02-26T03:15:22;32.90;;;25.93;;
2674;SDS011;1347;42.122;24.746;2024-02-26T03:17:49;34.13;;;25.93;;
2674;SDS011;1347;42.122;24.746;2024-02-26T03:20:16;29.57;;;25.17;;
2674;SDS011;1347;42.122;24.746;2024-02-26T03:22:44;37.90;;;25.50;;
2674;SDS011;1347;42.122;24.746;2024-02-26T03:25:11;35.97;;;24.93;;
2674;SDS011;1347;42.122;24.746;2024-02-26T03:27:38;34.13;;;27.10;;
2674;SDS011;1347;42.122;24.746;2024-02-26T03:30:07;33.63;;;28.80;;
2674;SDS011;1347;42.122;24.746;2024-02-26T03:32:35;35.73;;;27.57;;
2674;SDS011;1347;42.122;24.746;2024-02-26T03:35:02;32.13;;;27.73;;
2674;SDS011;1347;42.122;24.746;2024-02-26T03:37:29;34.90;;;29.90;;
2674;SDS011;1347;42.122;24.746;2024-02-26T03:39:56;36.07;;;29.93;;
2674;SDS011;1347;42.122;24.746;2024-02-26T03:42:23;39.70;;;31.43;;
2674;SDS011;1347;42.122;24.746;2024-02-26T03:44:50;41.93;;;32.43;;
2674;SDS011;1347;42.122;24.746;2024-02-26T03:47:18;46.10;;;33.20;;
2674;SDS011;1347;42.122;24.746;2024-02-26T03:49:45;40.93;;;32.30;;
2674;SDS011;1347;42.122;24.746;2024-02-26T03:52:12;40.97;;;34.37;;
2674;SDS011;1347;42.122;24.746;2024-02-26T03:54:40;42.50;;;32.03;;
2674;SDS011;1347;42.122;24.746;2024-02-26T03:57:06;42.87;;;33.07;;
2674;SDS011;1347;42.122;24.746;2024-02-26T03:59:33;37.90;;;31.60;;
2674;SDS011;1347;42.122;24.746;2024-02-26T04:02:01;37.70;;;32.80;;
2674;SDS011;1347;42.122;24.746;2024-02-26T04:04:29;42.67;;;31.40;;
2674;SDS011;1347;42.122;24.746;2024-02-26T04:06:56;41.10;;;30.70;;
2674;SDS011;1347;42.122;24.746;2024-02-26T04:09:23;42.53;;;32.90;;
2674;SDS011;1347;42.122;24.746;2024-02-26T04:11:49;44.83;;;34.43;;
2674;SDS011;1347;42.122;24.746;2024-02-26T04:14:16;43.30;;;34.10;;
2674;SDS011;1347;42.122;24.746;2024-02-26T04:16:43;53.37;;;37.07;;
2674;SDS011;1347;42.122;24.746;2024-02-26T04:19:10;42.80;;;33.13;;
2674;SDS011;1347;42.122;24.746;2024-02-26T04:21:40;52.57;;;36.07;;
2674;SDS011;1347;42.122;24.746;2024-02-26T04:24:07;47.57;;;32.77;;
2674;SDS011;1347;42.122;24.746;2024-02-26T04:26:34;43.70;;;35.07;;
2674;SDS011;1347;42.122;24.746;2024-02-26T04:29:01;45.30;;;37.07;;
2674;SDS011;1347;42.122;24.746;2024-02-26T04:31:28;42.50;;;33.67;;
2674;SDS011;1347;42.122;24.746;2024-02-26T04:33:58;39.47;;;30.47;;
2674;SDS011;1347;42.122;24.746;2024-02-26T04:36:24;47.40;;;30.07;;
2674;SDS011;1347;42.122;24.746;2024-02-26T04:38:53;42.70;;;29.83;;
2674;SDS011;1347;42.122;24.746;2024-02-26T04:41:21;36.70;;;28.80;;
2674;SDS011;1347;42.122;24.746;2024-02-26T04:43:47;33.20;;;27.10;;
2674;SDS011;1347;42.122;24.746;2024-02-26T04:46:14;35.47;;;26.70;;
2674;SDS011;1347;42.122;24.746;2024-02-26T04:48:41;29.73;;;24.60;;
2674;SDS011;1347;42.122;24.746;2024-02-26T04:51:10;32.57;;;24.07;;
2674;SDS011;1347;42.122;24.746;2024-02-26T04:53:37;35.73;;;26.07;;
2674;SDS011;1347;42.122;24.746;2024-02-26T04:56:05;42.50;;;29.00;;
2674;SDS011;1347;42.122;24.746;2024-02-26T04:58:32;37.27;;;26.60;;
2674;SDS011;1347;42.122;24.746;2024-02-26T05:00:59;32.50;;;24.60;;
2674;SDS011;1347;42.122;24.746;2024-02-26T05:03:26;31.10;;;24.30;;
2674;SDS011;1347;42.122;24.746;2024-02-26T05:05:53;35.40;;;25.67;;
2674;SDS011;1347;42.122;24.746;2024-02-26T05:08:20;32.83;;;25.73;;
2674;SDS011;1347;42.122;24.746;2024-02-26T05:10:47;34.77;;;27.67;;
2674;SDS011;1347;42.122;24.746;2024-02-26T05:13:15;37.57;;;27.87;;
2674;SDS011;1347;42.122;24.746;2024-02-26T05:15:43;38.50;;;29.67;;
2674;SDS011;1347;42.122;24.746;2024-02-26T05:18:12;33.97;;;28.53;;
2674;SDS011;1347;42.122;24.746;2024-02-26T05:20:38;40.23;;;31.87;;
2674;SDS011;1347;42.122;24.746;2024-02-26T05:23:05;44.57;;;33.20;;
2674;SDS011;1347;42.122;24.746;2024-02-26T05:25:32;49.27;;;34.33;;
2674;SDS011;1347;42.122;24.746;2024-02-26T05:27:59;44.03;;;32.97;;
2674;SDS011;1347;42.122;24.746;2024-02-26T05:30:27;46.70;;;34.40;;
2674;SDS011;1347;42.122;24.746;2024-02-26T05:32:54;41.80;;;32.60;;
2674;SDS011;1347;42.122;24.746;2024-02-26T05:35:21;41.93;;;34.07;;
2674;SDS011;1347;42.122;24.746;2024-02-26T05:37:48;49.40;;;33.37;;
2674;SDS011;1347;42.122;24.746;2024-02-26T05:40:15;44.43;;;33.30;;
2674;SDS011;1347;42.122;24.746;2024-02-26T05:42:42;39.43;;;33.00;;
2674;SDS011;1347;42.122;24.746;2024-02-26T05:45:10;41.70;;;34.13;;
2674;SDS011;1347;42.122;24.746;2024-02-26T05:47:38;42.50;;;33.33;;
2674;SDS011;1347;42.122;24.746;2024-02-26T05:50:08;52.03;;;35.83;;
2674;SDS011;1347;42.122;24.746;2024-02-26T05:52:36;42.33;;;32.67;;
2674;SDS011;1347;42.122;24.746;2024-02-26T05:55:03;45.97;;;35.10;;
2674;SDS011;1347;42.122;24.746;2024-02-26T05:57:31;48.67;;;34.67;;
2674;SDS011;1347;42.122;24.746;2024-02-26T05:59:58;46.07;;;34.20;;
2674;SDS011;1347;42.122;24.746;2024-02-26T06:02:28;39.77;;;31.60;;
2674;SDS011;1347;42.122;24.746;2024-02-26T06:04:57;47.03;;;33.13;;
2674;SDS011;1347;42.122;24.746;2024-02-26T06:07:24;40.13;;;28.67;;
2674;SDS011;1347;42.122;24.746;2024-02-26T06:09:51;37.73;;;27.57;;
2674;SDS011;1347;42.122;24.746;2024-02-26T06:12:18;42.60;;;29.07;;
2674;SDS011;1347;42.122;24.746;2024-02-26T06:14:44;48.27;;;33.03;;
2674;SDS011;1347;42.122;24.746;2024-02-26T06:17:12;46.23;;;33.50;;
2674;SDS011;1347;42.122;24.746;2024-02-26T06:19:39;50.43;;;32.30;;
2674;SDS011;1347;42.122;24.746;2024-02-26T06:22:07;46.43;;;31.17;;
2674;SDS011;1347;42.122;24.746;2024-02-26T06:24:34;44.83;;;28.70;;
2674;SDS011;1347;42.122;24.746;2024-02-26T06:27:01;36.37;;;26.07;;
2674;SDS011;1347;42.122;24.746;2024-02-26T06:29:27;45.50;;;27.53;;
2674;SDS011;1347;42.122;24.746;2024-02-26T06:31:54;42.83;;;26.60;;
2674;SDS011;1347;42.122;24.746;2024-02-26T06:34:21;40.93;;;30.77;;
2674;SDS011;1347;42.122;24.746;2024-02-26T06:36:48;38.97;;;28.07;;
2674;SDS011;1347;42.122;24.746;2024-02-26T06:39:17;31.87;;;23.77;;
2674;SDS011;1347;42.122;24.746;2024-02-26T06:41:44;31.43;;;24.13;;
2674;SDS011;1347;42.122;24.746;2024-02-26T06:44:11;29.20;;;23.73;;
2674;SDS011;1347;42.122;24.746;2024-02-26T06:46:39;35.63;;;27.70;;
2674;SDS011;1347;42.122;24.746;2024-02-26T06:49:06;39.43;;;25.23;;
2674;SDS011;1347;42.122;24.746;2024-02-26T06:51:33;34.63;;;24.20;;
2674;SDS011;1347;42.122;24.746;2024-02-26T06:53:59;32.37;;;21.67;;
2674;SDS011;1347;42.122;24.746;2024-02-26T06:56:28;28.97;;;21.50;;
2674;SDS011;1347;42.122;24.746;2024-02-26T06:58:55;30.03;;;19.90;;
2674;SDS011;1347;42.122;24.746;2024-02-26T07:01:21;27.53;;;19.20;;
2674;SDS011;1347;42.122;24.746;2024-02-26T07:03:48;26.40;;;19.13;;
2674;SDS011;1347;42.122;24.746;2024-02-26T07:06:15;33.03;;;21.23;;
2674;SDS011;1347;42.122;24.746;2024-02-26T07:08:42;23.93;;;17.80;;
2674;SDS011;1347;42.122;24.746;2024-02-26T07:11:09;29.87;;;19.73;;
2674;SDS011;1347;42.122;24.746;2024-02-26T07:13:38;43.07;;;25.60;;
2674;SDS011;1347;42.122;24.746;2024-02-26T07:16:05;35.50;;;29.40;;
2674;SDS011;1347;42.122;24.746;2024-02-26T07:18:32;47.80;;;31.90;;
2674;SDS011;1347;42.122;24.746;2024-02-26T07:21:01;34.03;;;28.03;;
2674;SDS011;1347;42.122;24.746;2024-02-26T07:23:28;38.80;;;28.33;;
2674;SDS011;1347;42.122;24.746;2024-02-26T07:25:56;47.97;;;31.03;;
2674;SDS011;1347;42.122;24.746;2024-02-26T07:28:23;40.20;;;30.80;;
2674;SDS011;1347;42.122;24.746;2024-02-26T07:30:52;38.30;;;28.00;;
2674;SDS011;1347;42.122;24.746;2024-02-26T07:33:19;47.67;;;29.93;;
2674;SDS011;1347;42.122;24.746;2024-02-26T07:35:45;35.53;;;28.17;;
2674;SDS011;1347;42.122;24.746;2024-02-26T07:38:12;45.20;;;28.97;;
2674;SDS011;1347;42.122;24.746;2024-02-26T07:40:39;39.97;;;25.77;;
2674;SDS011;1347;42.122;24.746;2024-02-26T07:43:06;34.63;;;25.57;;
2674;SDS011;1347;42.122;24.746;2024-02-26T07:45:33;36.57;;;28.03;;
2674;SDS011;1347;42.122;24.746;2024-02-26T07:48:03;39.17;;;27.73;;
2674;SDS011;1347;42.122;24.746;2024-02-26T07:50:30;40.23;;;29.00;;
2674;SDS011;1347;42.122;24.746;2024-02-26T07:52:57;37.33;;;29.40;;
2674;SDS011;1347;42.122;24.746;2024-02-26T07:55:24;36.80;;;29.63;;
2674;SDS011;1347;42.122;24.746;2024-02-26T07:57:50;43.57;;;29.10;;
2674;SDS011;1347;42.122;24.746;2024-02-26T08:00:18;43.90;;;30.63;;
2674;SDS011;1347;42.122;24.746;2024-02-26T08:02:45;41.53;;;28.60;;
2674;SDS011;1347;42.122;24.746;2024-02-26T08:05:13;38.37;;;29.40;;
2674;SDS011;1347;42.122;24.746;2024-02-26T08:07:41;37.10;;;28.80;;
2674;SDS011;1347;42.122;24.746;2024-02-26T08:10:08;47.23;;;29.67;;
2674;SDS011;1347;42.122;24.746;2024-02-26T08:12:36;46.67;;;29.57;;
2674;SDS011;1347;42.122;24.746;2024-02-26T08:15:03;47.23;;;28.63;;
2674;SDS011;1347;42.122;24.746;2024-02-26T08:17:31;30.43;;;25.63;;
2674;SDS011;1347;42.122;24.746;2024-02-26T08:19:59;37.10;;;24.80;;
2674;SDS011;1347;42.122;24.746;2024-02-26T08:22:27;34.63;;;24.97;;
2674;SDS011;1347;42.122;24.746;2024-02-26T08:24:54;37.77;;;25.83;;
2674;SDS011;1347;42.122;24.746;2024-02-26T08:27:20;37.30;;;26.77;;
2674;SDS011;1347;42.122;24.746;2024-02-26T08:29:47;31.70;;;22.50;;
2674;SDS011;1347;42.122;24.746;2024-02-26T08:32:14;29.07;;;22.63;;
2674;SDS011;1347;42.122;24.746;2024-02-26T08:34:42;28.60;;;22.53;;
2674;SDS011;1347;42.122;24.746;2024-02-26T08:37:09;34.90;;;21.90;;
2674;SDS011;1347;42.122;24.746;2024-02-26T08:39:37;32.03;;;23.20;;
2674;SDS011;1347;42.122;24.746;2024-02-26T08:42:04;29.40;;;21.77;;
2674;SDS011;1347;42.122;24.746;2024-02-26T08:44:31;25.33;;;20.60;;
2674;SDS011;1347;42.122;24.746;2024-02-26T08:46:58;30.43;;;21.93;;
2674;SDS011;1347;42.122;24.746;2024-02-26T08:49:25;28.53;;;21.40;;
2674;SDS011;1347;42.122;24.746;2024-02-26T08:51:52;27.53;;;21.60;;
2674;SDS011;1347;42.122;24.746;2024-02-26T08:54:19;33.30;;;21.20;;
2674;SDS011;1347;42.122;24.746;2024-02-26T08:56:47;27.90;;;21.73;;
2674;SDS011;1347;42.122;24.746;2024-02-26T08:59:14;27.33;;;22.23;;
2674;SDS011;1347;42.122;24.746;2024-02-26T09:01:41;29.63;;;24.73;;
2674;SDS011;1347;42.122;24.746;2024-02-26T09:04:08;35.23;;;23.37;;
2674;SDS011;1347;42.122;24.746;2024-02-26T09:06:35;32.07;;;24.30;;
2674;SDS011;1347;42.122;24.746;2024-02-26T09:09:02;25.47;;;22.53;;
2674;SDS011;1347;42.122;24.746;2024-02-26T09:11:29;30.67;;;21.87;;
2674;SDS011;1347;42.122;24.746;2024-02-26T09:13:58;23.17;;;20.80;;
2674;SDS011;1347;42.122;24.746;2024-02-26T09:16:25;26.90;;;22.07;;
2674;SDS011;1347;42.122;24.746;2024-02-26T09:18:52;29.50;;;23.53;;
2674;SDS011;1347;42.122;24.746;2024-02-26T09:21:19;25.37;;;22.37;;
2674;SDS011;1347;42.122;24.746;2024-02-26T09:23:48;27.83;;;22.47;;
2674;SDS011;1347;42.122;24.746;2024-02-26T09:26:15;27.83;;;22.67;;
2674;SDS011;1347;42.122;24.746;2024-02-26T09:28:42;26.60;;;22.77;;
2674;SDS011;1347;42.122;24.746;2024-02-26T09:31:11;26.33;;;23.43;;
2674;SDS011;1347;42.122;24.746;2024-02-26T09:33:38;29.30;;;23.13;;
2674;SDS011;1347;42.122;24.746;2024-02-26T09:36:05;31.00;;;24.00;;
2674;SDS011;1347;42.122;24.746;2024-02-26T09:38:32;34.93;;;25.87;;
2674;SDS011;1347;42.122;24.746;2024-02-26T09:41:03;29.63;;;25.30;;
2674;SDS011;1347;42.122;24.746;2024-02-26T09:43:32;34.27;;;25.10;;
2674;SDS011;1347;42.122;24.746;2024-02-26T09:46:01;26.90;;;24.00;;
2674;SDS011;1347;42.122;24.746;2024-02-26T09:48:30;31.10;;;25.23;;
2674;SDS011;1347;42.122;24.746;2024-02-26T09:50:59;26.10;;;22.53;;
2674;SDS011;1347;42.122;24.746;2024-02-26T09:53:27;29.23;;;22.17;;
2674;SDS011;1347;42.122;24.746;2024-02-26T09:55:57;27.00;;;22.50;;
2674;SDS011;1347;42.122;24.746;2024-02-26T09:58:24;27.43;;;23.07;;
2674;SDS011;1347;42.122;24.746;2024-02-26T10:00:54;28.83;;;23.03;;
2674;SDS011;1347;42.122;24.746;2024-02-26T10:03:24;31.30;;;23.20;;
2674;SDS011;1347;42.122;24.746;2024-02-26T10:05:56;28.17;;;21.93;;
2674;SDS011;1347;42.122;24.746;2024-02-26T10:08:23;31.63;;;22.07;;
2674;SDS011;1347;42.122;24.746;2024-02-26T10:10:51;23.00;;;19.67;;
2674;SDS011;1347;42.122;24.746;2024-02-26T10:13:19;25.80;;;21.77;;
2674;SDS011;1347;42.122;24.746;2024-02-26T10:15:46;25.10;;;22.40;;
2674;SDS011;1347;42.122;24.746;2024-02-26T10:18:13;24.00;;;20.40;;
2674;SDS011;1347;42.122;24.746;2024-02-26T10:20:42;31.63;;;23.13;;
2674;SDS011;1347;42.122;24.746;2024-02-26T10:23:10;31.43;;;23.20;;
2674;SDS011;1347;42.122;24.746;2024-02-26T10:25:36;28.77;;;21.97;;
2674;SDS011;1347;42.122;24.746;2024-02-26T10:28:03;23.93;;;19.93;;
2674;SDS011;1347;42.122;24.746;2024-02-26T10:30:30;26.87;;;21.10;;
2674;SDS011;1347;42.122;24.746;2024-02-26T10:32:58;29.70;;;21.63;;
2674;SDS011;1347;42.122;24.746;2024-02-26T10:35:25;27.83;;;21.00;;
2674;SDS011;1347;42.122;24.746;2024-02-26T10:37:53;26.03;;;23.33;;
2674;SDS011;1347;42.122;24.746;2024-02-26T10:40:22;25.40;;;22.73;;
2674;SDS011;1347;42.122;24.746;2024-02-26T10:42:49;27.53;;;22.30;;
2674;SDS011;1347;42.122;24.746;2024-02-26T10:45:16;30.03;;;23.10;;
2674;SDS011;1347;42.122;24.746;2024-02-26T10:47:43;28.80;;;22.10;;
2674;SDS011;1347;42.122;24.746;2024-02-26T10:50:12;31.43;;;22.43;;
2674;SDS011;1347;42.122;24.746;2024-02-26T10:52:42;27.70;;;21.00;;
2674;SDS011;1347;42.122;24.746;2024-02-26T10:55:11;33.70;;;23.60;;
2674;SDS011;1347;42.122;24.746;2024-02-26T10:57:44;28.10;;;22.73;;
2674;SDS011;1347;42.122;24.746;2024-02-26T11:00:13;23.37;;;20.53;;
2674;SDS011;1347;42.122;24.746;2024-02-26T11:02:41;30.93;;;21.53;;
2674;SDS011;1347;42.122;24.746;2024-02-26T11:05:10;27.40;;;20.83;;
2674;SDS011;1347;42.122;24.746;2024-02-26T11:07:38;25.63;;;19.93;;
2674;SDS011;1347;42.122;24.746;2024-02-26T11:10:08;27.70;;;21.23;;
2674;SDS011;1347;42.122;24.746;2024-02-26T11:12:37;29.80;;;21.60;;
2674;SDS011;1347;42.122;24.746;2024-02-26T11:15:08;26.80;;;20.97;;
2674;SDS011;1347;42.122;24.746;2024-02-26T11:17:35;29.13;;;21.60;;
2674;SDS011;1347;42.122;24.746;2024-02-26T11:20:04;29.97;;;22.57;;
2674;SDS011;1347;42.122;24.746;2024-02-26T11:22:36;26.90;;;19.37;;
2674;SDS011;1347;42.122;24.746;2024-02-26T11:25:03;22.37;;;16.60;;
2674;SDS011;1347;42.122;24.746;2024-02-26T11:30:18;18.90;;;15.30;;
2674;SDS011;1347;42.122;24.746;2024-02-26T11:32:50;16.60;;;14.90;;
2674;SDS011;1347;42.122;24.746;2024-02-26T11:35:18;17.70;;;15.70;;
2674;SDS011;1347;42.122;24.746;2024-02-26T11:37:53;19.83;;;16.93;;
2674;SDS011;1347;42.122;24.746;2024-02-26T11:40:22;20.17;;;17.17;;
2674;SDS011;1347;42.122;24.746;2024-02-26T11:42:49;20.57;;;18.40;;
2674;SDS011;1347;42.122;24.746;2024-02-26T11:48:24;24.73;;;17.17;;
2674;SDS011;1347;42.122;24.746;2024-02-26T11:50:52;20.80;;;17.87;;
2674;SDS011;1347;42.122;24.746;2024-02-26T11:53:21;23.90;;;19.13;;
2674;SDS011;1347;42.122;24.746;2024-02-26T11:55:48;20.23;;;17.30;;
2674;SDS011;1347;42.122;24.746;2024-02-26T11:58:35;19.93;;;17.90;;
2674;SDS011;1347;42.122;24.746;2024-02-26T12:01:04;23.90;;;18.37;;
2674;SDS011;1347;42.122;24.746;2024-02-26T12:03:30;28.20;;;19.50;;
2674;SDS011;1347;42.122;24.746;2024-02-26T12:05:57;21.37;;;18.47;;
2674;SDS011;1347;42.122;24.746;2024-02-26T12:08:24;23.23;;;19.30;;
2674;SDS011;1347;42.122;24.746;2024-02-26T12:10:51;23.47;;;19.80;;
2674;SDS011;1347;42.122;24.746;2024-02-26T12:13:21;20.50;;;17.77;;
2674;SDS011;1347;42.122;24.746;2024-02-26T12:15:57;22.37;;;18.33;;
2674;SDS011;1347;42.122;24.746;2024-02-26T12:18:26;21.23;;;18.13;;
2674;SDS011;1347;42.122;24.746;2024-02-26T12:20:58;30.53;;;19.50;;
2674;SDS011;1347;42.122;24.746;2024-02-26T12:23:26;28.00;;;20.53;;
2674;SDS011;1347;42.122;24.746;2024-02-26T12:25:53;22.50;;;20.10;;
2674;SDS011;1347;42.122;24.746;2024-02-26T12:28:27;21.77;;;19.30;;
2674;SDS011;1347;42.122;24.746;2024-02-26T12:30:54;27.50;;;21.03;;
2674;SDS011;1347;42.122;24.746;2024-02-26T12:33:30;27.10;;;19.47;;
2674;SDS011;1347;42.122;24.746;2024-02-26T12:35:57;23.20;;;18.80;;
2674;SDS011;1347;42.122;24.746;2024-02-26T12:38:24;30.70;;;21.03;;
2674;SDS011;1347;42.122;24.746;2024-02-26T12:40:53;23.40;;;18.20;;
2674;SDS011;1347;42.122;24.746;2024-02-26T12:43:22;22.60;;;19.10;;
2674;SDS011;1347;42.122;24.746;2024-02-26T12:45:49;28.57;;;20.10;;
2674;SDS011;1347;42.122;24.746;2024-02-26T12:48:16;28.30;;;19.13;;
2674;SDS011;1347;42.122;24.746;2024-02-26T12:50:45;27.97;;;18.43;;
2674;SDS011;1347;42.122;24.746;2024-02-26T12:53:13;26.97;;;18.50;;
2674;SDS011;1347;42.122;24.746;2024-02-26T12:55:40;23.97;;;17.60;;
2674;SDS011;1347;42.122;24.746;2024-02-26T12:58:07;24.43;;;19.30;;
2674;SDS011;1347;42.122;24.746;2024-02-26T13:00:34;24.47;;;19.63;;
2674;SDS011;1347;42.122;24.746;2024-02-26T13:03:02;26.03;;;18.30;;
2674;SDS011;1347;42.122;24.746;2024-02-26T13:05:30;19.43;;;17.20;;
2674;SDS011;1347;42.122;24.746;2024-02-26T13:07:59;27.60;;;18.23;;
2674;SDS011;1347;42.122;24.746;2024-02-26T13:10:26;30.47;;;17.33;;
2674;SDS011;1347;42.122;24.746;2024-02-26T13:12:53;22.43;;;18.37;;
2674;SDS011;1347;42.122;24.746;2024-02-26T13:15:21;22.67;;;17.40;;
2674;SDS011;1347;42.122;24.746;2024-02-26T13:17:48;23.50;;;16.53;;
2674;SDS011;1347;42.122;24.746;2024-02-26T13:20:25;22.33;;;16.67;;
2674;SDS011;1347;42.122;24.746;2024-02-26T13:23:00;19.33;;;15.87;;
2674;SDS011;1347;42.122;24.746;2024-02-26T13:25:28;27.90;;;16.37;;
2674;SDS011;1347;42.122;24.746;2024-02-26T13:28:04;20.97;;;17.80;;
2674;SDS011;1347;42.122;24.746;2024-02-26T13:30:33;18.63;;;14.60;;
2674;SDS011;1347;42.122;24.746;2024-02-26T13:33:09;22.00;;;15.80;;
2674;SDS011;1347;42.122;24.746;2024-02-26T13:35:36;17.47;;;15.57;;
2674;SDS011;1347;42.122;24.746;2024-02-26T13:38:05;23.27;;;16.70;;
2674;SDS011;1347;42.122;24.746;2024-02-26T13:40:32;18.27;;;16.23;;
2674;SDS011;1347;42.122;24.746;2024-02-26T13:43:00;18.33;;;15.30;;
2674;SDS011;1347;42.122;24.746;2024-02-26T13:45:27;18.10;;;15.57;;
2674;SDS011;1347;42.122;24.746;2024-02-26T13:47:54;21.50;;;16.00;;
2674;SDS011;1347;42.122;24.746;2024-02-26T13:50:27;24.13;;;16.40;;
2674;SDS011;1347;42.122;24.746;2024-02-26T13:52:54;26.30;;;16.17;;
2674;SDS011;1347;42.122;24.746;2024-02-26T13:55:25;19.30;;;14.47;;
2674;SDS011;1347;42.122;24.746;2024-02-26T13:57:53;18.40;;;14.43;;
2674;SDS011;1347;42.122;24.746;2024-02-26T14:00:20;14.87;;;13.27;;
2674;SDS011;1347;42.122;24.746;2024-02-26T14:02:47;23.37;;;14.03;;
2674;SDS011;1347;42.122;24.746;2024-02-26T14:05:14;26.37;;;14.57;;
2674;SDS011;1347;42.122;24.746;2024-02-26T14:07:41;17.63;;;13.27;;
2674;SDS011;1347;42.122;24.746;2024-02-26T14:10:08;19.30;;;15.93;;
2674;SDS011;1347;42.122;24.746;2024-02-26T14:12:39;22.07;;;13.87;;
2674;SDS011;1347;42.122;24.746;2024-02-26T14:15:06;25.40;;;14.57;;
2674;SDS011;1347;42.122;24.746;2024-02-26T14:17:34;20.53;;;14.63;;
2674;SDS011;1347;42.122;24.746;2024-02-26T14:20:01;18.77;;;15.13;;
2674;SDS011;1347;42.122;24.746;2024-02-26T14:22:29;17.60;;;14.50;;
2674;SDS011;1347;42.122;24.746;2024-02-26T14:24:56;26.53;;;14.50;;
2674;SDS011;1347;42.122;24.746;2024-02-26T14:27:24;18.03;;;12.93;;
2674;SDS011;1347;42.122;24.746;2024-02-26T14:29:52;14.47;;;10.93;;
2674;SDS011;1347;42.122;24.746;2024-02-26T14:32:20;13.07;;;9.40;;
2674;SDS011;1347;42.122;24.746;2024-02-26T14:34:47;13.30;;;7.40;;
2674;SDS011;1347;42.122;24.746;2024-02-26T14:37:14;13.73;;;8.10;;
2674;SDS011;1347;42.122;24.746;2024-02-26T14:39:41;19.13;;;9.40;;
2674;SDS011;1347;42.122;24.746;2024-02-26T14:42:07;11.73;;;7.50;;
2674;SDS011;1347;42.122;24.746;2024-02-26T14:44:34;13.40;;;9.47;;